sensor_id;sensor_type;location;lat;lon;timestamp;temperature;humidity
16128;DHT22;8168;49.036;7.690;2023-06-04T00:01:36;14.30;90.40
16128;DHT22;8168;49.036;7.690;2023-06-04T00:04:07;14.30;90.40
16128;DHT22;8168;49.036;7.690;2023-06-04T00:06:37;14.20;90.50
16128;DHT22;8168;49.036;7.690;2023-06-04T00:09:08;14.20;90.50
16128;DHT22;8168;49.036;7.690;2023-06-04T00:11:39;14.10;90.90
16128;DHT22;8168;49.036;7.690;2023-06-04T00:14:09;14.10;90.60
16128;DHT22;8168;49.036;7.690;2023-06-04T00:16:40;13.90;90.60
16128;DHT22;8168;49.036;7.690;2023-06-04T00:19:11;13.80;90.90
16128;DHT22;8168;49.036;7.690;2023-06-04T00:21:41;13.80;91.10
16128;DHT22;8168;49.036;7.690;2023-06-04T00:24:12;13.80;91.30
16128;DHT22;8168;49.036;7.690;2023-06-04T00:26:43;13.80;91.30
16128;DHT22;8168;49.036;7.690;2023-06-04T00:29:14;13.70;91.30
16128;DHT22;8168;49.036;7.690;2023-06-04T00:31:44;13.60;91.30
16128;DHT22;8168;49.036;7.690;2023-06-04T00:34:17;13.60;91.70
16128;DHT22;8168;49.036;7.690;2023-06-04T00:36:48;13.60;91.80
16128;DHT22;8168;49.036;7.690;2023-06-04T00:39:18;13.60;91.90
16128;DHT22;8168;49.036;7.690;2023-06-04T00:41:49;13.50;92.00
16128;DHT22;8168;49.036;7.690;2023-06-04T00:44:20;13.50;92.10
16128;DHT22;8168;49.036;7.690;2023-06-04T00:46:52;13.40;92.10
16128;DHT22;8168;49.036;7.690;2023-06-04T00:49:24;13.40;92.30
16128;DHT22;8168;49.036;7.690;2023-06-04T00:51:55;13.40;92.30
16128;DHT22;8168;49.036;7.690;2023-06-04T00:54:25;13.40;92.60
16128;DHT22;8168;49.036;7.690;2023-06-04T00:56:56;13.40;92.70
16128;DHT22;8168;49.036;7.690;2023-06-04T00:59:29;13.50;92.80
16128;DHT22;8168;49.036;7.690;2023-06-04T01:02:17;13.50;92.70
16128;DHT22;8168;49.036;7.690;2023-06-04T01:07:27;13.40;92.50
16128;DHT22;8168;49.036;7.690;2023-06-04T01:10:00;13.30;92.50
16128;DHT22;8168;49.036;7.690;2023-06-04T01:12:31;13.20;92.50
16128;DHT22;8168;49.036;7.690;2023-06-04T01:15:01;13.10;92.70
16128;DHT22;8168;49.036;7.690;2023-06-04T01:17:38;13.00;92.90
16128;DHT22;8168;49.036;7.690;2023-06-04T01:25:38;12.90;93.30
16128;DHT22;8168;49.036;7.690;2023-06-04T01:28:12;12.60;93.20
16128;DHT22;8168;49.036;7.690;2023-06-04T01:30:45;12.50;93.60
16128;DHT22;8168;49.036;7.690;2023-06-04T01:33:19;12.50;93.80
16128;DHT22;8168;49.036;7.690;2023-06-04T01:35:49;12.40;94.10
16128;DHT22;8168;49.036;7.690;2023-06-04T01:38:20;12.50;94.30
16128;DHT22;8168;49.036;7.690;2023-06-04T01:40:51;12.50;94.10
16128;DHT22;8168;49.036;7.690;2023-06-04T01:43:27;12.50;94.30
16128;DHT22;8168;49.036;7.690;2023-06-04T01:45:58;12.60;94.40
16128;DHT22;8168;49.036;7.690;2023-06-04T01:48:29;12.50;94.20
16128;DHT22;8168;49.036;7.690;2023-06-04T01:51:00;12.50;94.30
16128;DHT22;8168;49.036;7.690;2023-06-04T01:53:31;12.40;94.50
16128;DHT22;8168;49.036;7.690;2023-06-04T01:56:01;12.50;94.50
16128;DHT22;8168;49.036;7.690;2023-06-04T01:58:32;12.20;94.70
16128;DHT22;8168;49.036;7.690;2023-06-04T02:01:04;12.20;95.10
16128;DHT22;8168;49.036;7.690;2023-06-04T02:03:35;12.30;95.30
16128;DHT22;8168;49.036;7.690;2023-06-04T02:06:07;12.30;95.20
16128;DHT22;8168;49.036;7.690;2023-06-04T02:08:38;12.30;95.30
16128;DHT22;8168;49.036;7.690;2023-06-04T02:11:10;12.40;95.50
16128;DHT22;8168;49.036;7.690;2023-06-04T02:13:41;12.40;95.50
16128;DHT22;8168;49.036;7.690;2023-06-04T02:16:11;12.40;95.50
16128;DHT22;8168;49.036;7.690;2023-06-04T02:18:42;12.20;95.40
16128;DHT22;8168;49.036;7.690;2023-06-04T02:21:12;12.20;95.50
16128;DHT22;8168;49.036;7.690;2023-06-04T02:23:43;12.20;95.60
16128;DHT22;8168;49.036;7.690;2023-06-04T02:26:16;12.30;95.80
16128;DHT22;8168;49.036;7.690;2023-06-04T02:28:48;13.20;96.20
16128;DHT22;8168;49.036;7.690;2023-06-04T02:31:18;12.30;95.50
16128;DHT22;8168;49.036;7.690;2023-06-04T02:33:49;12.30;95.60
16128;DHT22;8168;49.036;7.690;2023-06-04T02:36:19;12.20;95.70
16128;DHT22;8168;49.036;7.690;2023-06-04T02:38:50;12.20;95.70
16128;DHT22;8168;49.036;7.690;2023-06-04T02:41:21;12.30;95.80
16128;DHT22;8168;49.036;7.690;2023-06-04T02:43:52;12.30;95.80
16128;DHT22;8168;49.036;7.690;2023-06-04T02:46:23;12.30;95.80
16128;DHT22;8168;49.036;7.690;2023-06-04T02:48:53;12.20;95.80
16128;DHT22;8168;49.036;7.690;2023-06-04T02:51:24;12.20;95.90
16128;DHT22;8168;49.036;7.690;2023-06-04T02:53:55;12.20;96.00
16128;DHT22;8168;49.036;7.690;2023-06-04T02:56:26;12.30;95.90
16128;DHT22;8168;49.036;7.690;2023-06-04T02:58:57;12.30;95.70
16128;DHT22;8168;49.036;7.690;2023-06-04T03:01:27;12.20;95.70
16128;DHT22;8168;49.036;7.690;2023-06-04T03:03:58;12.20;95.60
16128;DHT22;8168;49.036;7.690;2023-06-04T03:06:29;12.10;95.70
16128;DHT22;8168;49.036;7.690;2023-06-04T03:08:59;12.10;95.90
16128;DHT22;8168;49.036;7.690;2023-06-04T03:11:30;12.10;95.90
16128;DHT22;8168;49.036;7.690;2023-06-04T03:14:01;12.20;95.90
16128;DHT22;8168;49.036;7.690;2023-06-04T03:16:31;12.10;95.80
16128;DHT22;8168;49.036;7.690;2023-06-04T03:19:02;12.10;95.90
16128;DHT22;8168;49.036;7.690;2023-06-04T03:21:33;12.10;95.80
16128;DHT22;8168;49.036;7.690;2023-06-04T03:24:04;12.10;95.90
16128;DHT22;8168;49.036;7.690;2023-06-04T03:26:34;12.00;95.60
16128;DHT22;8168;49.036;7.690;2023-06-04T03:29:05;12.00;95.80
16128;DHT22;8168;49.036;7.690;2023-06-04T03:31:36;12.00;95.70
16128;DHT22;8168;49.036;7.690;2023-06-04T03:34:08;12.10;95.60
16128;DHT22;8168;49.036;7.690;2023-06-04T03:36:39;12.10;95.60
16128;DHT22;8168;49.036;7.690;2023-06-04T03:39:10;12.20;95.50
16128;DHT22;8168;49.036;7.690;2023-06-04T03:41:41;12.20;95.40
16128;DHT22;8168;49.036;7.690;2023-06-04T03:44:15;12.20;95.40
16128;DHT22;8168;49.036;7.690;2023-06-04T03:46:46;12.20;95.40
16128;DHT22;8168;49.036;7.690;2023-06-04T03:49:17;12.20;95.40
16128;DHT22;8168;49.036;7.690;2023-06-04T03:51:48;12.20;95.40
16128;DHT22;8168;49.036;7.690;2023-06-04T03:54:18;12.20;95.40
16128;DHT22;8168;49.036;7.690;2023-06-04T03:56:49;12.30;95.40
16128;DHT22;8168;49.036;7.690;2023-06-04T03:59:20;12.30;95.40
16128;DHT22;8168;49.036;7.690;2023-06-04T04:01:51;12.30;95.30
16128;DHT22;8168;49.036;7.690;2023-06-04T04:04:21;12.30;95.10
16128;DHT22;8168;49.036;7.690;2023-06-04T04:06:52;12.30;95.00
16128;DHT22;8168;49.036;7.690;2023-06-04T04:09:22;14.00;95.80
16128;DHT22;8168;49.036;7.690;2023-06-04T04:11:53;12.40;95.00
16128;DHT22;8168;49.036;7.690;2023-06-04T04:14:24;12.40;95.00
16128;DHT22;8168;49.036;7.690;2023-06-04T04:16:54;12.40;94.80
16128;DHT22;8168;49.036;7.690;2023-06-04T04:19:25;12.50;94.80
16128;DHT22;8168;49.036;7.690;2023-06-04T04:21:56;12.60;94.90
16128;DHT22;8168;49.036;7.690;2023-06-04T04:24:27;12.60;94.70
16128;DHT22;8168;49.036;7.690;2023-06-04T04:26:57;12.70;94.60
16128;DHT22;8168;49.036;7.690;2023-06-04T04:29:29;12.70;94.40
16128;DHT22;8168;49.036;7.690;2023-06-04T04:32:03;12.80;94.50
16128;DHT22;8168;49.036;7.690;2023-06-04T04:34:53;12.80;94.40
16128;DHT22;8168;49.036;7.690;2023-06-04T04:37:25;12.90;94.40
16128;DHT22;8168;49.036;7.690;2023-06-04T04:39:56;13.00;94.20
16128;DHT22;8168;49.036;7.690;2023-06-04T04:42:27;13.10;94.10
16128;DHT22;8168;49.036;7.690;2023-06-04T04:44:58;13.20;93.70
16128;DHT22;8168;49.036;7.690;2023-06-04T04:47:28;13.30;93.50
16128;DHT22;8168;49.036;7.690;2023-06-04T04:49:59;13.30;93.50
16128;DHT22;8168;49.036;7.690;2023-06-04T04:52:30;13.40;93.60
16128;DHT22;8168;49.036;7.690;2023-06-04T04:55:00;13.50;93.60
16128;DHT22;8168;49.036;7.690;2023-06-04T04:57:31;13.60;93.30
16128;DHT22;8168;49.036;7.690;2023-06-04T05:00:02;13.80;92.70
16128;DHT22;8168;49.036;7.690;2023-06-04T05:02:36;13.80;92.50
16128;DHT22;8168;49.036;7.690;2023-06-04T05:05:07;14.00;92.50
16128;DHT22;8168;49.036;7.690;2023-06-04T05:07:37;14.10;92.10
16128;DHT22;8168;49.036;7.690;2023-06-04T05:10:08;14.20;91.90
16128;DHT22;8168;49.036;7.690;2023-06-04T05:12:39;14.30;91.60
16128;DHT22;8168;49.036;7.690;2023-06-04T05:15:10;14.40;91.30
16128;DHT22;8168;49.036;7.690;2023-06-04T05:17:42;14.60;90.90
16128;DHT22;8168;49.036;7.690;2023-06-04T05:20:14;14.70;90.50
16128;DHT22;8168;49.036;7.690;2023-06-04T05:22:45;14.80;90.30
16128;DHT22;8168;49.036;7.690;2023-06-04T05:25:16;14.90;89.80
16128;DHT22;8168;49.036;7.690;2023-06-04T05:27:47;15.10;89.20
16128;DHT22;8168;49.036;7.690;2023-06-04T05:30:19;15.20;84.90
16128;DHT22;8168;49.036;7.690;2023-06-04T05:32:50;15.30;84.80
16128;DHT22;8168;49.036;7.690;2023-06-04T05:35:20;15.50;84.60
16128;DHT22;8168;49.036;7.690;2023-06-04T05:37:51;15.60;83.20
16128;DHT22;8168;49.036;7.690;2023-06-04T05:40:24;15.60;80.90
16128;DHT22;8168;49.036;7.690;2023-06-04T05:42:54;15.80;80.90
16128;DHT22;8168;49.036;7.690;2023-06-04T05:45:25;15.90;80.20
16128;DHT22;8168;49.036;7.690;2023-06-04T05:47:55;16.00;79.40
16128;DHT22;8168;49.036;7.690;2023-06-04T05:50:27;16.00;79.20
16128;DHT22;8168;49.036;7.690;2023-06-04T05:52:58;16.10;78.80
16128;DHT22;8168;49.036;7.690;2023-06-04T05:55:28;16.20;76.90
16128;DHT22;8168;49.036;7.690;2023-06-04T05:57:59;16.20;77.10
16128;DHT22;8168;49.036;7.690;2023-06-04T06:00:30;16.20;78.30
16128;DHT22;8168;49.036;7.690;2023-06-04T06:03:01;16.30;77.20
16128;DHT22;8168;49.036;7.690;2023-06-04T06:05:32;16.40;78.00
16128;DHT22;8168;49.036;7.690;2023-06-04T06:08:02;16.50;77.70
16128;DHT22;8168;49.036;7.690;2023-06-04T06:10:33;16.60;76.20
16128;DHT22;8168;49.036;7.690;2023-06-04T06:13:03;16.60;73.50
16128;DHT22;8168;49.036;7.690;2023-06-04T06:15:34;16.60;75.30
16128;DHT22;8168;49.036;7.690;2023-06-04T06:18:05;16.60;75.70
16128;DHT22;8168;49.036;7.690;2023-06-04T06:20:36;16.70;76.30
16128;DHT22;8168;49.036;7.690;2023-06-04T06:23:07;16.80;75.90
16128;DHT22;8168;49.036;7.690;2023-06-04T06:25:38;17.00;74.90
16128;DHT22;8168;49.036;7.690;2023-06-04T06:28:11;17.10;75.20
16128;DHT22;8168;49.036;7.690;2023-06-04T06:30:42;17.10;74.00
16128;DHT22;8168;49.036;7.690;2023-06-04T06:33:12;17.20;74.20
16128;DHT22;8168;49.036;7.690;2023-06-04T06:35:43;17.20;73.30
16128;DHT22;8168;49.036;7.690;2023-06-04T06:38:16;17.20;73.30
16128;DHT22;8168;49.036;7.690;2023-06-04T06:40:47;17.20;73.40
16128;DHT22;8168;49.036;7.690;2023-06-04T06:43:18;17.20;72.90
16128;DHT22;8168;49.036;7.690;2023-06-04T06:45:48;17.10;73.00
16128;DHT22;8168;49.036;7.690;2023-06-04T06:48:19;17.00;73.40
16128;DHT22;8168;49.036;7.690;2023-06-04T06:50:49;17.10;73.50
16128;DHT22;8168;49.036;7.690;2023-06-04T06:53:20;17.20;72.40
16128;DHT22;8168;49.036;7.690;2023-06-04T06:55:51;17.30;72.70
16128;DHT22;8168;49.036;7.690;2023-06-04T06:58:21;17.50;72.10
16128;DHT22;8168;49.036;7.690;2023-06-04T07:00:53;17.60;73.20
16128;DHT22;8168;49.036;7.690;2023-06-04T07:03:26;17.70;71.70
16128;DHT22;8168;49.036;7.690;2023-06-04T07:05:57;17.80;71.80
16128;DHT22;8168;49.036;7.690;2023-06-04T07:08:28;17.90;71.90
16128;DHT22;8168;49.036;7.690;2023-06-04T07:10:59;18.00;72.70
16128;DHT22;8168;49.036;7.690;2023-06-04T07:13:32;18.10;71.80
16128;DHT22;8168;49.036;7.690;2023-06-04T07:16:05;18.20;71.60
16128;DHT22;8168;49.036;7.690;2023-06-04T07:18:36;18.30;71.40
16128;DHT22;8168;49.036;7.690;2023-06-04T07:21:07;18.40;71.50
16128;DHT22;8168;49.036;7.690;2023-06-04T07:23:37;18.40;69.40
16128;DHT22;8168;49.036;7.690;2023-06-04T07:26:08;18.50;70.80
16128;DHT22;8168;49.036;7.690;2023-06-04T07:28:39;18.50;70.80
16128;DHT22;8168;49.036;7.690;2023-06-04T07:31:09;18.50;70.50
16128;DHT22;8168;49.036;7.690;2023-06-04T07:33:40;18.50;70.60
16128;DHT22;8168;49.036;7.690;2023-06-04T07:36:13;18.60;70.70
16128;DHT22;8168;49.036;7.690;2023-06-04T07:38:44;18.70;70.30
16128;DHT22;8168;49.036;7.690;2023-06-04T07:41:15;18.70;70.60
16128;DHT22;8168;49.036;7.690;2023-06-04T07:43:45;18.70;71.10
16128;DHT22;8168;49.036;7.690;2023-06-04T07:46:16;18.70;71.10
16128;DHT22;8168;49.036;7.690;2023-06-04T07:48:49;18.80;70.90
16128;DHT22;8168;49.036;7.690;2023-06-04T07:51:19;18.80;70.60
16128;DHT22;8168;49.036;7.690;2023-06-04T07:53:50;19.00;71.40
16128;DHT22;8168;49.036;7.690;2023-06-04T07:56:22;19.10;71.80
16128;DHT22;8168;49.036;7.690;2023-06-04T07:58:52;19.30;71.80
16128;DHT22;8168;49.036;7.690;2023-06-04T08:01:23;19.30;71.20
16128;DHT22;8168;49.036;7.690;2023-06-04T08:03:56;19.40;71.00
16128;DHT22;8168;49.036;7.690;2023-06-04T08:06:29;19.50;71.60
16128;DHT22;8168;49.036;7.690;2023-06-04T08:08:59;19.60;72.40
16128;DHT22;8168;49.036;7.690;2023-06-04T08:11:30;19.80;69.60
16128;DHT22;8168;49.036;7.690;2023-06-04T08:14:00;19.90;70.00
16128;DHT22;8168;49.036;7.690;2023-06-04T08:16:34;20.10;70.10
16128;DHT22;8168;49.036;7.690;2023-06-04T08:19:05;20.20;69.00
16128;DHT22;8168;49.036;7.690;2023-06-04T08:21:37;20.40;68.40
16128;DHT22;8168;49.036;7.690;2023-06-04T08:24:08;20.50;66.30
16128;DHT22;8168;49.036;7.690;2023-06-04T08:26:39;20.50;68.20
16128;DHT22;8168;49.036;7.690;2023-06-04T08:29:10;20.60;66.00
16128;DHT22;8168;49.036;7.690;2023-06-04T08:31:40;20.70;67.40
16128;DHT22;8168;49.036;7.690;2023-06-04T08:34:11;20.70;66.80
16128;DHT22;8168;49.036;7.690;2023-06-04T08:36:41;20.90;67.20
16128;DHT22;8168;49.036;7.690;2023-06-04T08:39:12;21.00;66.40
16128;DHT22;8168;49.036;7.690;2023-06-04T08:41:52;21.10;65.80
16128;DHT22;8168;49.036;7.690;2023-06-04T08:44:22;21.30;65.00
16128;DHT22;8168;49.036;7.690;2023-06-04T08:46:53;21.30;66.60
16128;DHT22;8168;49.036;7.690;2023-06-04T08:49:29;21.30;65.80
16128;DHT22;8168;49.036;7.690;2023-06-04T08:52:03;21.30;64.10
16128;DHT22;8168;49.036;7.690;2023-06-04T08:54:33;21.40;67.20
16128;DHT22;8168;49.036;7.690;2023-06-04T08:57:04;21.50;67.40
16128;DHT22;8168;49.036;7.690;2023-06-04T08:59:36;21.60;67.00
16128;DHT22;8168;49.036;7.690;2023-06-04T09:02:07;21.70;67.30
16128;DHT22;8168;49.036;7.690;2023-06-04T09:04:39;21.80;68.00
16128;DHT22;8168;49.036;7.690;2023-06-04T09:07:13;21.80;67.40
16128;DHT22;8168;49.036;7.690;2023-06-04T09:09:46;21.90;67.30
16128;DHT22;8168;49.036;7.690;2023-06-04T09:12:23;22.00;67.40
16128;DHT22;8168;49.036;7.690;2023-06-04T09:14:54;22.10;66.80
16128;DHT22;8168;49.036;7.690;2023-06-04T09:17:24;22.00;66.80
16128;DHT22;8168;49.036;7.690;2023-06-04T09:19:55;21.90;66.90
16128;DHT22;8168;49.036;7.690;2023-06-04T09:22:33;21.90;66.20
16128;DHT22;8168;49.036;7.690;2023-06-04T09:25:06;21.90;66.90
16128;DHT22;8168;49.036;7.690;2023-06-04T09:27:39;21.90;65.20
16128;DHT22;8168;49.036;7.690;2023-06-04T09:30:13;21.90;66.40
16128;DHT22;8168;49.036;7.690;2023-06-04T09:32:44;22.10;66.60
16128;DHT22;8168;49.036;7.690;2023-06-04T09:35:17;22.20;67.60
16128;DHT22;8168;49.036;7.690;2023-06-04T09:37:57;22.30;65.40
16128;DHT22;8168;49.036;7.690;2023-06-04T09:40:37;22.20;66.10
16128;DHT22;8168;49.036;7.690;2023-06-04T09:43:10;22.20;65.70
16128;DHT22;8168;49.036;7.690;2023-06-04T09:45:41;22.30;67.50
16128;DHT22;8168;49.036;7.690;2023-06-04T09:48:19;22.40;64.50
16128;DHT22;8168;49.036;7.690;2023-06-04T09:50:53;22.50;66.10
16128;DHT22;8168;49.036;7.690;2023-06-04T09:53:24;22.30;63.60
16128;DHT22;8168;49.036;7.690;2023-06-04T09:56:01;22.40;63.70
16128;DHT22;8168;49.036;7.690;2023-06-04T09:58:34;22.40;63.90
16128;DHT22;8168;49.036;7.690;2023-06-04T10:01:05;22.50;63.40
16128;DHT22;8168;49.036;7.690;2023-06-04T10:03:36;22.40;62.40
16128;DHT22;8168;49.036;7.690;2023-06-04T10:06:09;22.50;63.20
16128;DHT22;8168;49.036;7.690;2023-06-04T10:08:42;22.60;64.10
16128;DHT22;8168;49.036;7.690;2023-06-04T10:11:20;22.60;64.00
16128;DHT22;8168;49.036;7.690;2023-06-04T10:14:02;22.80;65.30
16128;DHT22;8168;49.036;7.690;2023-06-04T10:16:37;23.00;63.90
16128;DHT22;8168;49.036;7.690;2023-06-04T10:19:08;23.20;63.50
16128;DHT22;8168;49.036;7.690;2023-06-04T10:21:39;23.30;59.10
16128;DHT22;8168;49.036;7.690;2023-06-04T10:24:10;23.30;59.90
16128;DHT22;8168;49.036;7.690;2023-06-04T10:26:42;23.40;61.10
16128;DHT22;8168;49.036;7.690;2023-06-04T10:29:14;23.60;60.80
16128;DHT22;8168;49.036;7.690;2023-06-04T10:31:45;23.80;60.60
16128;DHT22;8168;49.036;7.690;2023-06-04T10:34:16;23.70;59.30
16128;DHT22;8168;49.036;7.690;2023-06-04T10:36:48;23.70;58.70
16128;DHT22;8168;49.036;7.690;2023-06-04T10:39:26;23.60;57.60
16128;DHT22;8168;49.036;7.690;2023-06-04T10:42:02;23.50;56.20
16128;DHT22;8168;49.036;7.690;2023-06-04T10:44:48;23.50;58.10
16128;DHT22;8168;49.036;7.690;2023-06-04T10:47:26;23.60;56.60
16128;DHT22;8168;49.036;7.690;2023-06-04T10:50:14;23.70;57.40
16128;DHT22;8168;49.036;7.690;2023-06-04T10:52:54;23.60;58.30
16128;DHT22;8168;49.036;7.690;2023-06-04T10:55:25;23.80;58.90
16128;DHT22;8168;49.036;7.690;2023-06-04T10:57:57;24.00;58.10
16128;DHT22;8168;49.036;7.690;2023-06-04T11:00:46;24.10;59.00
16128;DHT22;8168;49.036;7.690;2023-06-04T11:03:19;24.20;59.20
16128;DHT22;8168;49.036;7.690;2023-06-04T11:05:50;24.40;60.20
16128;DHT22;8168;49.036;7.690;2023-06-04T11:08:28;24.60;58.40
16128;DHT22;8168;49.036;7.690;2023-06-04T11:11:13;24.60;53.50
16128;DHT22;8168;49.036;7.690;2023-06-04T11:13:44;24.50;54.20
16128;DHT22;8168;49.036;7.690;2023-06-04T11:16:19;24.40;55.00
16128;DHT22;8168;49.036;7.690;2023-06-04T11:18:56;24.40;55.20
16128;DHT22;8168;49.036;7.690;2023-06-04T11:21:27;24.40;54.10
16128;DHT22;8168;49.036;7.690;2023-06-04T11:23:58;24.40;53.40
16128;DHT22;8168;49.036;7.690;2023-06-04T11:26:33;24.40;56.30
16128;DHT22;8168;49.036;7.690;2023-06-04T11:29:10;24.40;56.50
16128;DHT22;8168;49.036;7.690;2023-06-04T11:31:47;24.20;55.40
16128;DHT22;8168;49.036;7.690;2023-06-04T11:34:24;24.20;55.70
16128;DHT22;8168;49.036;7.690;2023-06-04T11:36:55;24.20;55.10
16128;DHT22;8168;49.036;7.690;2023-06-04T11:39:34;24.20;56.80
16128;DHT22;8168;49.036;7.690;2023-06-04T11:42:06;24.30;57.00
16128;DHT22;8168;49.036;7.690;2023-06-04T11:44:38;25.40;56.90
16128;DHT22;8168;49.036;7.690;2023-06-04T11:47:09;24.60;55.10
16128;DHT22;8168;49.036;7.690;2023-06-04T11:49:40;24.60;56.00
16128;DHT22;8168;49.036;7.690;2023-06-04T11:52:13;24.70;55.70
16128;DHT22;8168;49.036;7.690;2023-06-04T11:54:44;24.80;56.50
16128;DHT22;8168;49.036;7.690;2023-06-04T11:57:14;24.90;57.20
16128;DHT22;8168;49.036;7.690;2023-06-04T11:59:45;25.00;57.10
16128;DHT22;8168;49.036;7.690;2023-06-04T12:02:16;25.00;56.10
16128;DHT22;8168;49.036;7.690;2023-06-04T12:04:47;25.10;57.50
16128;DHT22;8168;49.036;7.690;2023-06-04T12:07:21;25.20;57.40
16128;DHT22;8168;49.036;7.690;2023-06-04T12:10:05;25.20;56.90
16128;DHT22;8168;49.036;7.690;2023-06-04T12:12:36;25.20;56.80
16128;DHT22;8168;49.036;7.690;2023-06-04T12:15:07;25.20;57.10
16128;DHT22;8168;49.036;7.690;2023-06-04T12:17:53;25.20;56.80
16128;DHT22;8168;49.036;7.690;2023-06-04T12:20:35;25.20;58.00
16128;DHT22;8168;49.036;7.690;2023-06-04T12:23:06;25.20;58.20
16128;DHT22;8168;49.036;7.690;2023-06-04T12:25:37;25.30;56.50
16128;DHT22;8168;49.036;7.690;2023-06-04T12:28:17;25.40;57.10
16128;DHT22;8168;49.036;7.690;2023-06-04T12:30:48;25.40;56.20
16128;DHT22;8168;49.036;7.690;2023-06-04T12:33:19;25.40;56.60
16128;DHT22;8168;49.036;7.690;2023-06-04T12:35:50;25.30;55.10
16128;DHT22;8168;49.036;7.690;2023-06-04T12:38:21;25.30;57.00
16128;DHT22;8168;49.036;7.690;2023-06-04T12:40:51;25.40;57.40
16128;DHT22;8168;49.036;7.690;2023-06-04T12:43:22;25.50;58.50
16128;DHT22;8168;49.036;7.690;2023-06-04T12:45:52;25.60;57.10
16128;DHT22;8168;49.036;7.690;2023-06-04T12:48:23;25.60;54.70
16128;DHT22;8168;49.036;7.690;2023-06-04T12:50:54;25.40;54.10
16128;DHT22;8168;49.036;7.690;2023-06-04T12:53:24;25.30;53.50
16128;DHT22;8168;49.036;7.690;2023-06-04T12:55:55;25.20;54.00
16128;DHT22;8168;49.036;7.690;2023-06-04T12:58:25;25.20;56.50
16128;DHT22;8168;49.036;7.690;2023-06-04T13:00:56;25.30;56.60
16128;DHT22;8168;49.036;7.690;2023-06-04T13:03:27;25.40;55.60
16128;DHT22;8168;49.036;7.690;2023-06-04T13:05:58;25.50;54.80
16128;DHT22;8168;49.036;7.690;2023-06-04T13:08:28;25.50;55.10
16128;DHT22;8168;49.036;7.690;2023-06-04T13:10:59;25.50;57.60
16128;DHT22;8168;49.036;7.690;2023-06-04T13:13:30;25.60;54.90
16128;DHT22;8168;49.036;7.690;2023-06-04T13:16:01;25.60;54.80
16128;DHT22;8168;49.036;7.690;2023-06-04T13:18:32;25.60;54.70
16128;DHT22;8168;49.036;7.690;2023-06-04T13:21:02;25.60;54.10
16128;DHT22;8168;49.036;7.690;2023-06-04T13:23:33;25.60;55.50
16128;DHT22;8168;49.036;7.690;2023-06-04T13:26:03;25.60;53.30
16128;DHT22;8168;49.036;7.690;2023-06-04T13:28:34;25.50;54.20
16128;DHT22;8168;49.036;7.690;2023-06-04T13:31:05;25.40;53.80
16128;DHT22;8168;49.036;7.690;2023-06-04T13:33:36;25.30;53.50
16128;DHT22;8168;49.036;7.690;2023-06-04T13:36:07;25.30;54.60
16128;DHT22;8168;49.036;7.690;2023-06-04T13:38:37;25.50;54.20
16128;DHT22;8168;49.036;7.690;2023-06-04T13:41:08;25.50;56.00
16128;DHT22;8168;49.036;7.690;2023-06-04T13:43:39;25.50;53.70
16128;DHT22;8168;49.036;7.690;2023-06-04T13:46:09;25.40;55.80
16128;DHT22;8168;49.036;7.690;2023-06-04T13:48:40;25.60;53.80
16128;DHT22;8168;49.036;7.690;2023-06-04T13:51:10;25.60;54.60
16128;DHT22;8168;49.036;7.690;2023-06-04T13:53:41;25.60;54.20
16128;DHT22;8168;49.036;7.690;2023-06-04T13:56:12;25.50;55.30
16128;DHT22;8168;49.036;7.690;2023-06-04T13:58:43;25.60;55.50
16128;DHT22;8168;49.036;7.690;2023-06-04T14:01:13;25.60;55.80
16128;DHT22;8168;49.036;7.690;2023-06-04T14:03:44;25.60;55.90
16128;DHT22;8168;49.036;7.690;2023-06-04T14:06:14;25.60;54.20
16128;DHT22;8168;49.036;7.690;2023-06-04T14:08:45;25.50;56.40
16128;DHT22;8168;49.036;7.690;2023-06-04T14:11:16;25.60;55.90
16128;DHT22;8168;49.036;7.690;2023-06-04T14:13:46;25.60;54.70
16128;DHT22;8168;49.036;7.690;2023-06-04T14:16:17;25.60;54.70
16128;DHT22;8168;49.036;7.690;2023-06-04T14:18:47;25.60;55.90
16128;DHT22;8168;49.036;7.690;2023-06-04T14:21:18;25.60;54.40
16128;DHT22;8168;49.036;7.690;2023-06-04T14:23:49;25.50;55.90
16128;DHT22;8168;49.036;7.690;2023-06-04T14:26:20;25.50;57.10
16128;DHT22;8168;49.036;7.690;2023-06-04T14:28:51;25.60;57.00
16128;DHT22;8168;49.036;7.690;2023-06-04T14:31:21;25.60;56.80
16128;DHT22;8168;49.036;7.690;2023-06-04T14:33:52;25.70;56.20
16128;DHT22;8168;49.036;7.690;2023-06-04T14:36:23;25.80;57.00
16128;DHT22;8168;49.036;7.690;2023-06-04T14:38:53;25.80;56.50
16128;DHT22;8168;49.036;7.690;2023-06-04T14:41:24;25.80;55.00
16128;DHT22;8168;49.036;7.690;2023-06-04T14:43:55;25.80;54.70
16128;DHT22;8168;49.036;7.690;2023-06-04T14:46:26;25.70;54.70
16128;DHT22;8168;49.036;7.690;2023-06-04T14:48:56;25.60;55.00
16128;DHT22;8168;49.036;7.690;2023-06-04T14:51:27;25.50;55.70
16128;DHT22;8168;49.036;7.690;2023-06-04T14:53:57;25.60;55.30
16128;DHT22;8168;49.036;7.690;2023-06-04T14:56:28;25.60;55.10
16128;DHT22;8168;49.036;7.690;2023-06-04T14:59:01;25.70;56.10
16128;DHT22;8168;49.036;7.690;2023-06-04T15:01:32;25.80;55.40
16128;DHT22;8168;49.036;7.690;2023-06-04T15:04:03;25.80;55.40
16128;DHT22;8168;49.036;7.690;2023-06-04T15:06:34;25.90;55.10
16128;DHT22;8168;49.036;7.690;2023-06-04T15:09:05;25.90;54.70
16128;DHT22;8168;49.036;7.690;2023-06-04T15:11:35;25.90;54.50
16128;DHT22;8168;49.036;7.690;2023-06-04T15:14:06;25.80;52.80
16128;DHT22;8168;49.036;7.690;2023-06-04T15:16:37;25.80;52.90
16128;DHT22;8168;49.036;7.690;2023-06-04T15:19:09;25.70;54.30
16128;DHT22;8168;49.036;7.690;2023-06-04T15:21:40;25.70;53.40
16128;DHT22;8168;49.036;7.690;2023-06-04T15:24:10;25.70;53.70
16128;DHT22;8168;49.036;7.690;2023-06-04T15:26:41;25.70;52.90
16128;DHT22;8168;49.036;7.690;2023-06-04T15:29:12;25.70;53.10
16128;DHT22;8168;49.036;7.690;2023-06-04T15:31:42;25.80;53.20
16128;DHT22;8168;49.036;7.690;2023-06-04T15:34:13;25.80;53.80
16128;DHT22;8168;49.036;7.690;2023-06-04T15:36:44;25.90;53.10
16128;DHT22;8168;49.036;7.690;2023-06-04T15:39:16;25.90;52.60
16128;DHT22;8168;49.036;7.690;2023-06-04T15:41:47;25.90;51.20
16128;DHT22;8168;49.036;7.690;2023-06-04T15:44:18;25.90;51.60
16128;DHT22;8168;49.036;7.690;2023-06-04T15:46:50;25.90;51.50
16128;DHT22;8168;49.036;7.690;2023-06-04T15:49:21;25.90;51.50
16128;DHT22;8168;49.036;7.690;2023-06-04T15:51:52;25.90;50.90
16128;DHT22;8168;49.036;7.690;2023-06-04T15:54:22;25.90;52.00
16128;DHT22;8168;49.036;7.690;2023-06-04T15:56:53;25.90;51.30
16128;DHT22;8168;49.036;7.690;2023-06-04T15:59:23;25.90;51.40
16128;DHT22;8168;49.036;7.690;2023-06-04T16:01:54;25.90;50.60
16128;DHT22;8168;49.036;7.690;2023-06-04T16:04:24;25.80;50.30
16128;DHT22;8168;49.036;7.690;2023-06-04T16:06:55;25.70;48.90
16128;DHT22;8168;49.036;7.690;2023-06-04T16:09:26;25.60;51.00
16128;DHT22;8168;49.036;7.690;2023-06-04T16:11:56;25.50;50.40
16128;DHT22;8168;49.036;7.690;2023-06-04T16:14:27;25.60;50.50
16128;DHT22;8168;49.036;7.690;2023-06-04T16:16:57;25.50;49.30
16128;DHT22;8168;49.036;7.690;2023-06-04T16:19:28;25.40;48.30
16128;DHT22;8168;49.036;7.690;2023-06-04T16:21:59;25.30;49.20